createdAt,value
2019-02-28T00:00:17.663Z,1008.23
2019-02-28T00:01:17.687Z,1008.28
2019-02-28T00:02:21.191Z,1008.24
2019-02-28T00:03:17.600Z,1008.23
2019-02-28T00:04:17.589Z,1008.26
2019-02-28T00:05:17.571Z,1008.29
2019-02-28T00:06:17.624Z,1008.27
2019-02-28T00:07:17.922Z,1008.31
2019-02-28T00:08:17.565Z,1008.23
2019-02-28T00:09:17.538Z,1008.20
2019-02-28T00:10:17.544Z,1008.20
2019-02-28T00:11:17.517Z,1008.21
2019-02-28T00:12:17.530Z,1008.18
2019-02-28T00:13:21.423Z,1008.20
2019-02-28T00:14:17.482Z,1008.18
2019-02-28T00:15:17.465Z,1008.15
2019-02-28T00:16:17.457Z,1008.19
2019-02-28T00:17:17.516Z,1008.15
2019-02-28T00:18:17.520Z,1008.12
2019-02-28T00:19:17.431Z,1008.18
2019-02-28T00:20:17.418Z,1008.17
2019-02-28T00:21:17.466Z,1008.08
2019-02-28T00:22:17.401Z,1008.12
2019-02-28T00:23:19.212Z,1008.04
2019-02-28T00:24:17.494Z,1008.04
2019-02-28T00:25:17.350Z,1008.06
2019-02-28T00:26:17.399Z,1008.02
2019-02-28T00:27:20.963Z,1007.91
2019-02-28T00:28:17.463Z,1007.93
2019-02-28T00:29:17.345Z,1007.90
2019-02-28T00:30:17.394Z,1007.89
2019-02-28T00:31:17.319Z,1007.88
2019-02-28T00:32:17.309Z,1007.91
2019-02-28T00:33:17.266Z,1007.90
2019-02-28T00:34:17.295Z,1007.82
2019-02-28T00:35:17.247Z,1007.90
2019-02-28T00:36:19.298Z,1007.77
2019-02-28T00:37:17.247Z,1007.81
2019-02-28T00:38:17.210Z,1007.78
2019-02-28T00:39:17.236Z,1007.79
2019-02-28T00:40:17.201Z,1007.76
2019-02-28T00:41:17.199Z,1007.83
2019-02-28T00:42:17.678Z,1007.69
2019-02-28T00:43:17.209Z,1007.65
2019-02-28T00:44:17.179Z,1007.65
2019-02-28T00:45:17.188Z,1007.64
2019-02-28T00:46:17.245Z,1007.68
2019-02-28T00:47:17.189Z,1007.65
2019-02-28T00:48:18.234Z,1007.58
2019-02-28T00:49:17.135Z,1007.63
2019-02-28T00:50:17.096Z,1007.59
2019-02-28T00:51:17.081Z,1007.57
2019-02-28T00:52:17.070Z,1007.57
2019-02-28T00:53:17.093Z,1007.55
2019-02-28T00:54:17.092Z,1007.55
2019-02-28T00:55:17.028Z,1007.58
2019-02-28T00:56:17.812Z,1007.54
2019-02-28T00:57:17.007Z,1007.52
2019-02-28T00:58:17.033Z,1007.50
2019-02-28T00:59:16.985Z,1007.48
2019-02-28T01:00:17.001Z,1007.57
2019-02-28T01:01:16.965Z,1007.56
2019-02-28T01:02:17.659Z,1007.57
2019-02-28T01:03:16.951Z,1007.58
2019-02-28T01:04:16.947Z,1007.54
2019-02-28T01:05:16.987Z,1007.50
2019-02-28T01:06:16.905Z,1007.52
2019-02-28T01:07:17.023Z,1007.51
2019-02-28T01:08:19.107Z,1007.53
2019-02-28T01:09:17.878Z,1007.48
2019-02-28T01:10:16.957Z,1007.51
2019-02-28T01:11:16.857Z,1007.54
2019-02-28T01:12:19.346Z,1007.53
2019-02-28T01:13:16.836Z,1007.46
2019-02-28T01:14:16.836Z,1007.50
2019-02-28T01:15:16.827Z,1007.44
2019-02-28T01:16:19.323Z,1007.45
2019-02-28T01:17:16.798Z,1007.43
2019-02-28T01:18:16.795Z,1007.41
2019-02-28T01:19:16.839Z,1007.30
2019-02-28T01:20:16.868Z,1007.26
2019-02-28T01:21:16.819Z,1007.23
2019-02-28T01:22:16.742Z,1007.22
2019-02-28T01:23:16.739Z,1007.11
2019-02-28T01:24:16.712Z,1007.13
2019-02-28T01:25:16.704Z,1007.09
2019-02-28T01:26:16.720Z,1007.14
2019-02-28T01:27:17.377Z,1007.13
2019-02-28T01:28:16.681Z,1007.14
2019-02-28T01:29:16.668Z,1007.13
2019-02-28T01:30:16.715Z,1007.11
2019-02-28T01:31:16.723Z,1007.21
2019-02-28T01:32:16.656Z,1007.22
2019-02-28T01:33:16.664Z,1007.21
2019-02-28T01:34:16.601Z,1007.25
2019-02-28T01:35:16.688Z,1007.21
2019-02-28T01:36:16.641Z,1007.22
2019-02-28T01:37:16.590Z,1007.17
2019-02-28T01:38:16.599Z,1007.19
2019-02-28T01:39:16.551Z,1007.15
2019-02-28T01:40:16.574Z,1007.10
2019-02-28T01:41:16.572Z,1007.21
2019-02-28T01:42:19.970Z,1007.17
2019-02-28T01:43:16.505Z,1007.23
2019-02-28T01:44:16.512Z,1007.18
2019-02-28T01:45:16.526Z,1007.16
2019-02-28T01:46:17.208Z,1007.21
2019-02-28T01:47:19.953Z,1007.20
2019-02-28T01:48:16.455Z,1007.16
2019-02-28T01:49:16.454Z,1007.16
2019-02-28T01:50:16.459Z,1007.15
2019-02-28T01:51:16.445Z,1007.11
2019-02-28T01:52:16.472Z,1007.07
2019-02-28T01:53:19.571Z,1007.07
2019-02-28T01:54:17.464Z,1007.09
2019-02-28T01:55:16.384Z,1007.12
2019-02-28T01:56:16.372Z,1007.08
2019-02-28T01:57:16.420Z,1007.03
2019-02-28T01:58:17.384Z,1007.04
2019-02-28T01:59:16.401Z,1007.02
2019-02-28T02:00:16.348Z,1006.98
2019-02-28T02:01:16.314Z,1007.03
2019-02-28T02:02:16.303Z,1007.02
2019-02-28T02:03:16.418Z,1006.98
2019-02-28T02:04:16.283Z,1007.00
2019-02-28T02:05:17.303Z,1006.98
2019-02-28T02:06:16.275Z,1007.02
2019-02-28T02:07:16.287Z,1006.99
2019-02-28T02:08:16.307Z,1007.01
2019-02-28T02:09:16.228Z,1006.97
2019-02-28T02:10:17.605Z,1006.93
2019-02-28T02:11:16.270Z,1006.98
2019-02-28T02:12:16.192Z,1006.94
2019-02-28T02:13:16.274Z,1007.02
2019-02-28T02:14:16.179Z,1007.03
2019-02-28T02:15:16.887Z,1006.94
2019-02-28T02:16:16.149Z,1007.02
2019-02-28T02:17:16.215Z,1007.00
2019-02-28T02:18:16.141Z,1007.04
2019-02-28T02:19:18.550Z,1006.98
2019-02-28T02:20:16.103Z,1006.97
2019-02-28T02:21:16.150Z,1006.93
2019-02-28T02:22:16.174Z,1006.95
2019-02-28T02:23:18.210Z,1006.91
2019-02-28T02:24:16.183Z,1006.93
2019-02-28T02:25:16.088Z,1006.87
2019-02-28T02:26:16.073Z,1006.85
2019-02-28T02:27:16.253Z,1006.87
2019-02-28T02:28:16.091Z,1006.86
2019-02-28T02:29:16.070Z,1006.88
2019-02-28T02:30:16.326Z,1006.87
2019-02-28T02:31:15.994Z,1006.83
2019-02-28T02:32:15.995Z,1006.79
2019-02-28T02:33:16.002Z,1006.79
2019-02-28T02:34:15.993Z,1006.78
2019-02-28T02:35:15.963Z,1006.68
2019-02-28T02:36:17.520Z,1006.72
2019-02-28T02:37:15.949Z,1006.69
2019-02-28T02:38:15.917Z,1006.72
2019-02-28T02:39:17.590Z,1006.67
2019-02-28T02:40:15.952Z,1006.64
2019-02-28T02:41:15.878Z,1006.63
2019-02-28T02:42:15.916Z,1006.56
2019-02-28T02:43:15.869Z,1006.61
2019-02-28T02:44:15.869Z,1006.57
2019-02-28T02:45:15.868Z,1006.60
2019-02-28T02:46:20.185Z,1006.58
2019-02-28T02:47:16.821Z,1006.50
2019-02-28T02:48:15.836Z,1006.50
2019-02-28T02:49:19.902Z,1006.49
2019-02-28T02:50:15.825Z,1006.41
2019-02-28T02:51:15.774Z,1006.39
2019-02-28T02:52:15.776Z,1006.41
2019-02-28T02:53:15.756Z,1006.42
2019-02-28T02:54:19.694Z,1006.43
2019-02-28T02:55:15.804Z,1006.34
2019-02-28T02:56:15.738Z,1006.30
2019-02-28T02:57:15.851Z,1006.35
2019-02-28T02:58:15.693Z,1006.36
2019-02-28T02:59:15.717Z,1006.39
2019-02-28T03:00:15.778Z,1006.33
2019-02-28T03:01:15.660Z,1006.34
2019-02-28T03:02:15.671Z,1006.27
2019-02-28T03:03:15.647Z,1006.29
2019-02-28T03:04:21.447Z,1006.28
2019-02-28T03:05:16.669Z,1006.20
2019-02-28T03:06:15.627Z,1006.19
2019-02-28T03:07:23.318Z,1006.22
2019-02-28T03:08:16.594Z,1006.17
2019-02-28T03:09:15.589Z,1006.26
2019-02-28T03:10:17.290Z,1006.19
2019-02-28T03:11:15.579Z,1006.20
2019-02-28T03:12:15.572Z,1006.21
2019-02-28T03:13:15.537Z,1006.17
2019-02-28T03:14:17.315Z,1006.19
2019-02-28T03:15:15.515Z,1006.21
2019-02-28T03:16:15.587Z,1006.20
2019-02-28T03:17:15.485Z,1006.17
2019-02-28T03:18:20.576Z,1006.17
2019-02-28T03:19:16.475Z,1006.21
2019-02-28T03:20:15.461Z,1006.18
2019-02-28T03:21:16.506Z,1006.14
2019-02-28T03:22:15.518Z,1006.14
2019-02-28T03:23:15.446Z,1006.16
2019-02-28T03:24:16.429Z,1006.19
2019-02-28T03:25:15.410Z,1006.18
2019-02-28T03:26:15.453Z,1006.15
2019-02-28T03:27:19.083Z,1006.14
2019-02-28T03:28:15.371Z,1006.11
2019-02-28T03:29:15.397Z,1006.17
2019-02-28T03:30:26.044Z,1006.15
2019-02-28T03:31:16.405Z,1006.13
2019-02-28T03:32:15.400Z,1006.14
2019-02-28T03:33:27.393Z,1006.11
2019-02-28T03:34:16.369Z,1006.15
2019-02-28T03:35:15.308Z,1006.11
2019-02-28T03:36:16.711Z,1006.07
2019-02-28T03:37:15.297Z,1006.11
2019-02-28T03:38:15.319Z,1006.25
2019-02-28T03:39:15.283Z,1006.20
2019-02-28T03:40:15.252Z,1006.13
2019-02-28T03:41:17.758Z,1006.20
2019-02-28T03:42:15.233Z,1006.23
2019-02-28T03:43:15.295Z,1006.21
2019-02-28T03:44:19.803Z,1006.21
2019-02-28T03:45:16.238Z,1006.22
2019-02-28T03:46:15.197Z,1006.15
2019-02-28T03:47:15.165Z,1006.16
2019-02-28T03:48:15.178Z,1006.14
2019-02-28T03:49:15.208Z,1006.16
2019-02-28T03:50:15.170Z,1006.09
2019-02-28T03:51:15.138Z,1006.16
2019-02-28T03:52:15.127Z,1006.14
2019-02-28T03:53:19.232Z,1006.17
2019-02-28T03:54:16.212Z,1006.09
2019-02-28T03:55:15.114Z,1006.11
2019-02-28T03:56:16.029Z,1006.10
2019-02-28T03:57:15.055Z,1006.00
2019-02-28T03:58:15.078Z,1006.02
2019-02-28T03:59:18.933Z,1006.07
2019-02-28T04:00:16.092Z,1006.06
2019-02-28T04:01:15.004Z,1006.04
2019-02-28T04:02:20.801Z,1006.00
2019-02-28T04:03:16.687Z,1006.03
2019-02-28T04:04:14.969Z,1005.98
2019-02-28T04:05:14.977Z,1006.03
2019-02-28T04:06:14.950Z,1005.93
2019-02-28T04:07:15.983Z,1005.97
2019-02-28T04:08:14.989Z,1006.04
2019-02-28T04:09:14.961Z,1005.97
2019-02-28T04:10:16.787Z,1006.02
2019-02-28T04:11:15.921Z,1006.03
2019-02-28T04:12:14.937Z,1005.98
2019-02-28T04:13:19.310Z,1005.98
2019-02-28T04:14:15.986Z,1005.99
2019-02-28T04:15:14.879Z,1005.94
2019-02-28T04:16:14.918Z,1005.94
2019-02-28T04:17:14.857Z,1005.92
2019-02-28T04:18:14.830Z,1005.84
2019-02-28T04:19:21.209Z,1005.82
2019-02-28T04:20:15.888Z,1005.84
2019-02-28T04:21:14.803Z,1005.83
2019-02-28T04:22:14.851Z,1005.78
2019-02-28T04:23:14.773Z,1005.80
2019-02-28T04:24:14.768Z,1005.84
2019-02-28T04:25:14.842Z,1005.78
2019-02-28T04:26:14.829Z,1005.84
2019-02-28T04:27:14.737Z,1005.72
2019-02-28T04:28:18.718Z,1005.83
2019-02-28T04:29:14.763Z,1005.78
2019-02-28T04:30:14.698Z,1005.72
2019-02-28T04:31:18.725Z,1005.78
2019-02-28T04:32:15.681Z,1005.76
2019-02-28T04:33:14.663Z,1005.73
2019-02-28T04:34:14.711Z,1005.73
2019-02-28T04:35:14.640Z,1005.77
2019-02-28T04:36:14.690Z,1005.73
2019-02-28T04:37:14.619Z,1005.69
2019-02-28T04:38:14.611Z,1005.70
2019-02-28T04:39:14.619Z,1005.74
2019-02-28T04:40:14.627Z,1005.65
2019-02-28T04:41:14.670Z,1005.66
2019-02-28T04:42:14.565Z,1005.65
2019-02-28T04:43:14.564Z,1005.62
2019-02-28T04:44:15.364Z,1005.62
2019-02-28T04:45:14.554Z,1005.62
2019-02-28T04:46:15.376Z,1005.57
2019-02-28T04:47:14.622Z,1005.65
2019-02-28T04:48:14.692Z,1005.64
2019-02-28T04:49:14.500Z,1005.65
2019-02-28T04:50:14.538Z,1005.59
2019-02-28T04:51:14.506Z,1005.64
2019-02-28T04:52:14.453Z,1005.69
2019-02-28T04:53:14.440Z,1005.65
2019-02-28T04:54:14.500Z,1005.71
2019-02-28T04:55:14.542Z,1005.70
2019-02-28T04:56:14.453Z,1005.67
2019-02-28T04:57:17.426Z,1005.72
2019-02-28T04:58:15.503Z,1005.70
2019-02-28T04:59:14.400Z,1005.72
2019-02-28T05:00:14.379Z,1005.71
2019-02-28T05:01:14.406Z,1005.67
2019-02-28T05:02:19.616Z,1005.71
2019-02-28T05:03:15.334Z,1005.73
2019-02-28T05:04:14.349Z,1005.74
2019-02-28T05:05:14.345Z,1005.68
2019-02-28T05:06:14.315Z,1005.75
2019-02-28T05:07:14.317Z,1005.71
2019-02-28T05:08:14.281Z,1005.72
2019-02-28T05:09:15.114Z,1005.69
2019-02-28T05:10:14.290Z,1005.75
2019-02-28T05:11:14.296Z,1005.78
2019-02-28T05:12:14.403Z,1005.75
2019-02-28T05:13:14.946Z,1005.67
2019-02-28T05:14:14.208Z,1005.67
2019-02-28T05:15:14.275Z,1005.65
2019-02-28T05:16:14.224Z,1005.73
2019-02-28T05:17:14.293Z,1005.63
2019-02-28T05:18:14.174Z,1005.67
2019-02-28T05:19:14.185Z,1005.61
2019-02-28T05:20:14.150Z,1005.62
2019-02-28T05:21:16.472Z,1005.63
2019-02-28T05:22:15.184Z,1005.63
2019-02-28T05:23:14.115Z,1005.70
2019-02-28T05:24:14.132Z,1005.66
2019-02-28T05:25:17.796Z,1005.67
2019-02-28T05:26:14.083Z,1005.62
2019-02-28T05:27:14.067Z,1005.58
2019-02-28T05:28:14.129Z,1005.65
2019-02-28T05:29:14.055Z,1005.64
2019-02-28T05:30:17.987Z,1005.69
2019-02-28T05:31:15.043Z,1005.72
2019-02-28T05:32:14.080Z,1005.72
2019-02-28T05:33:14.889Z,1005.71
2019-02-28T05:34:15.963Z,1005.71
2019-02-28T05:35:14.039Z,1005.69
2019-02-28T05:36:14.011Z,1005.70
2019-02-28T05:37:13.965Z,1005.69
2019-02-28T05:38:14.071Z,1005.67
2019-02-28T05:39:14.010Z,1005.70
2019-02-28T05:40:13.941Z,1005.69
2019-02-28T05:41:15.345Z,1005.69
2019-02-28T05:42:13.967Z,1005.75
2019-02-28T05:43:13.934Z,1005.73
2019-02-28T05:44:13.899Z,1005.70
2019-02-28T05:45:14.889Z,1005.84
2019-02-28T05:46:13.891Z,1005.75
2019-02-28T05:47:13.886Z,1005.78
2019-02-28T05:48:13.887Z,1005.75
2019-02-28T05:49:13.864Z,1005.76
2019-02-28T05:50:16.598Z,1005.81
2019-02-28T05:51:13.868Z,1005.80
2019-02-28T05:52:13.805Z,1005.80
2019-02-28T05:53:13.832Z,1005.79
2019-02-28T05:54:16.931Z,1005.76
2019-02-28T05:55:13.774Z,1005.82
2019-02-28T05:56:13.777Z,1005.77
2019-02-28T05:57:13.745Z,1005.79
2019-02-28T05:58:17.573Z,1005.84
2019-02-28T05:59:13.725Z,1005.83
2019-02-28T06:00:13.803Z,1005.88
2019-02-28T06:01:13.748Z,1005.84
2019-02-28T06:02:13.703Z,1005.89
2019-02-28T06:03:13.705Z,1005.94
2019-02-28T06:04:13.679Z,1005.95
2019-02-28T06:05:13.685Z,1005.98
2019-02-28T06:06:13.661Z,1005.98
2019-02-28T06:07:13.661Z,1006.03
2019-02-28T06:08:13.672Z,1006.00
2019-02-28T06:09:14.739Z,1005.97
2019-02-28T06:10:13.704Z,1005.91
2019-02-28T06:11:15.297Z,1005.82
2019-02-28T06:12:13.591Z,1005.81
2019-02-28T06:13:15.354Z,1005.83
2019-02-28T06:14:13.590Z,1005.87
2019-02-28T06:15:13.558Z,1005.75
2019-02-28T06:16:13.557Z,1005.76
2019-02-28T06:17:13.544Z,1005.82
2019-02-28T06:18:13.545Z,1005.81
2019-02-28T06:19:13.576Z,1005.83
2019-02-28T06:20:16.523Z,1005.80
2019-02-28T06:21:13.487Z,1005.77
2019-02-28T06:22:13.481Z,1005.77
2019-02-28T06:23:13.476Z,1005.75
2019-02-28T06:24:13.595Z,1005.77
2019-02-28T06:25:22.180Z,1005.77
2019-02-28T06:26:14.455Z,1005.78
2019-02-28T06:27:13.419Z,1005.69
2019-02-28T06:28:13.413Z,1005.73
2019-02-28T06:29:13.408Z,1005.73
2019-02-28T06:30:13.431Z,1005.74
2019-02-28T06:31:14.301Z,1005.71
2019-02-28T06:32:13.738Z,1005.73
2019-02-28T06:33:13.360Z,1005.66
2019-02-28T06:34:13.436Z,1005.68
2019-02-28T06:35:15.927Z,1005.72
2019-02-28T06:36:13.901Z,1005.74
2019-02-28T06:37:13.498Z,1005.76
2019-02-28T06:38:16.231Z,1005.76
2019-02-28T06:39:14.333Z,1005.72
2019-02-28T06:40:13.368Z,1005.72
2019-02-28T06:41:13.348Z,1005.68
2019-02-28T06:42:13.251Z,1005.66
2019-02-28T06:43:14.179Z,1005.66
2019-02-28T06:44:13.277Z,1005.66
2019-02-28T06:45:13.230Z,1005.67
2019-02-28T06:46:13.246Z,1005.72
2019-02-28T06:47:14.250Z,1005.71
2019-02-28T06:48:13.211Z,1005.81
2019-02-28T06:49:13.219Z,1005.84
2019-02-28T06:50:13.793Z,1005.77
2019-02-28T06:51:13.189Z,1005.86
2019-02-28T06:52:13.164Z,1005.90
2019-02-28T06:53:13.130Z,1005.89
2019-02-28T06:54:13.163Z,1005.92
2019-02-28T06:55:13.371Z,1005.84
2019-02-28T06:56:13.172Z,1005.84
2019-02-28T06:57:13.119Z,1005.83
2019-02-28T06:58:13.076Z,1005.82
2019-02-28T06:59:13.071Z,1005.79
2019-02-28T07:00:14.231Z,1005.74
2019-02-28T07:01:13.067Z,1005.78
2019-02-28T07:02:13.072Z,1005.70
2019-02-28T07:03:13.082Z,1005.68
2019-02-28T07:04:14.536Z,1005.63
2019-02-28T07:05:13.020Z,1005.54
2019-02-28T07:06:13.022Z,1005.54
2019-02-28T07:07:13.708Z,1005.59
2019-02-28T07:08:13.102Z,1005.54
2019-02-28T07:09:12.959Z,1005.50
2019-02-28T07:10:13.395Z,1005.51
2019-02-28T07:11:12.951Z,1005.47
2019-02-28T07:12:13.329Z,1005.48
2019-02-28T07:13:12.962Z,1005.40
2019-02-28T07:14:13.767Z,1005.43
2019-02-28T07:15:12.894Z,1005.44
2019-02-28T07:16:12.902Z,1005.43
2019-02-28T07:17:12.873Z,1005.39
2019-02-28T07:18:12.883Z,1005.41
2019-02-28T07:19:12.846Z,1005.43
2019-02-28T07:20:12.831Z,1005.40
2019-02-28T07:21:12.826Z,1005.37
2019-02-28T07:22:19.249Z,1005.33
2019-02-28T07:23:13.825Z,1005.34
2019-02-28T07:24:13.001Z,1005.34
2019-02-28T07:25:13.830Z,1005.36
2019-02-28T07:26:12.783Z,1005.39
2019-02-28T07:27:12.812Z,1005.32
2019-02-28T07:28:12.799Z,1005.41
2019-02-28T07:29:12.751Z,1005.42
2019-02-28T07:30:17.286Z,1005.46
2019-02-28T07:31:13.733Z,1005.46
2019-02-28T07:32:12.785Z,1005.45
2019-02-28T07:33:12.726Z,1005.47
2019-02-28T07:34:12.720Z,1005.45
2019-02-28T07:35:12.695Z,1005.53
2019-02-28T07:36:12.658Z,1005.43
2019-02-28T07:37:12.670Z,1005.48
2019-02-28T07:38:12.743Z,1005.47
2019-02-28T07:39:12.628Z,1005.48
2019-02-28T07:40:16.018Z,1005.54
2019-02-28T07:41:12.604Z,1005.51
2019-02-28T07:42:12.633Z,1005.61
2019-02-28T07:43:13.263Z,1005.60
2019-02-28T07:44:12.599Z,1005.63
2019-02-28T07:45:12.673Z,1005.56
2019-02-28T07:46:12.582Z,1005.60
2019-02-28T07:47:17.172Z,1005.59
2019-02-28T07:48:12.530Z,1005.55
2019-02-28T07:49:12.603Z,1005.52
2019-02-28T07:50:12.513Z,1005.57
2019-02-28T07:51:12.497Z,1005.58
2019-02-28T07:52:12.508Z,1005.55
2019-02-28T07:53:12.493Z,1005.57
2019-02-28T07:54:15.837Z,1005.57
2019-02-28T07:55:12.481Z,1005.60
2019-02-28T07:56:12.449Z,1005.49
2019-02-28T07:57:17.007Z,1005.53
2019-02-28T07:58:13.502Z,1005.51
2019-02-28T07:59:12.475Z,1005.50
2019-02-28T08:00:16.828Z,1005.51
2019-02-28T08:01:13.386Z,1005.54
2019-02-28T08:02:12.509Z,1005.50
2019-02-28T08:03:12.370Z,1005.49
2019-02-28T08:04:12.440Z,1005.57
2019-02-28T08:05:12.405Z,1005.61
2019-02-28T08:06:12.346Z,1005.53
2019-02-28T08:07:14.877Z,1005.56
2019-02-28T08:08:13.272Z,1005.66
2019-02-28T08:09:12.309Z,1005.66
2019-02-28T08:10:12.814Z,1005.64
2019-02-28T08:11:12.337Z,1005.59
2019-02-28T08:12:12.313Z,1005.54
2019-02-28T08:13:12.293Z,1005.60
2019-02-28T08:14:12.948Z,1005.53
2019-02-28T08:15:13.652Z,1005.52
2019-02-28T08:16:12.250Z,1005.59
2019-02-28T08:17:12.243Z,1005.60
2019-02-28T08:18:12.211Z,1005.58
2019-02-28T08:19:12.223Z,1005.62
2019-02-28T08:20:12.200Z,1005.59
2019-02-28T08:21:12.213Z,1005.52
2019-02-28T08:22:12.160Z,1005.61
2019-02-28T08:23:12.780Z,1005.49
2019-02-28T08:24:12.160Z,1005.49
2019-02-28T08:25:12.131Z,1005.51
2019-02-28T08:26:15.534Z,1005.42
2019-02-28T08:27:13.115Z,1005.47
2019-02-28T08:28:12.093Z,1005.30
2019-02-28T08:29:12.086Z,1005.39
2019-02-28T08:30:12.146Z,1005.42
2019-02-28T08:31:12.146Z,1005.39
2019-02-28T08:32:12.094Z,1005.39
2019-02-28T08:33:12.042Z,1005.42
2019-02-28T08:34:12.347Z,1005.38
2019-02-28T08:35:12.020Z,1005.44
2019-02-28T08:36:12.719Z,1005.46
2019-02-28T08:37:11.995Z,1005.51
2019-02-28T08:38:11.998Z,1005.47
2019-02-28T08:39:12.073Z,1005.46
2019-02-28T08:40:12.554Z,1005.55
2019-02-28T08:41:11.986Z,1005.48
2019-02-28T08:42:12.017Z,1005.47
2019-02-28T08:43:13.559Z,1005.49
2019-02-28T08:44:12.018Z,1005.53
2019-02-28T08:45:11.986Z,1005.56
2019-02-28T08:46:13.724Z,1005.56
2019-02-28T08:47:11.910Z,1005.53
2019-02-28T08:48:12.768Z,1005.64
2019-02-28T08:49:11.892Z,1005.62
2019-02-28T08:50:11.866Z,1005.56
2019-02-28T08:51:11.848Z,1005.53
2019-02-28T08:52:12.290Z,1005.47
2019-02-28T08:53:12.379Z,1005.47
2019-02-28T08:54:11.818Z,1005.49
2019-02-28T08:55:11.797Z,1005.53
2019-02-28T08:56:14.038Z,1005.59
2019-02-28T08:57:13.000Z,1005.63
2019-02-28T08:58:11.815Z,1005.66
2019-02-28T08:59:12.229Z,1005.62
2019-02-28T09:00:11.751Z,1005.60
2019-02-28T09:01:12.234Z,1005.64
2019-02-28T09:02:14.544Z,1005.60
2019-02-28T09:03:12.711Z,1005.55
2019-02-28T09:04:11.737Z,1005.63
2019-02-28T09:05:11.730Z,1005.61
2019-02-28T09:06:11.713Z,1005.59
2019-02-28T09:07:14.833Z,1005.67
2019-02-28T09:08:14.551Z,1005.66
2019-02-28T09:09:11.678Z,1005.59
2019-02-28T09:10:12.670Z,1005.63
2019-02-28T09:11:11.695Z,1005.60
2019-02-28T09:12:11.677Z,1005.64
2019-02-28T09:13:11.669Z,1005.64
2019-02-28T09:14:14.691Z,1005.61
2019-02-28T09:15:12.882Z,1005.62
2019-02-28T09:16:11.605Z,1005.68
2019-02-28T09:17:11.669Z,1005.65
2019-02-28T09:18:12.439Z,1005.70
2019-02-28T09:19:11.589Z,1005.76
2019-02-28T09:20:11.562Z,1005.71
2019-02-28T09:21:15.347Z,1005.76
2019-02-28T09:22:11.515Z,1005.83
2019-02-28T09:23:11.567Z,1005.77
2019-02-28T09:24:12.525Z,1005.78
2019-02-28T09:25:22.907Z,1005.62
2019-02-28T09:26:16.340Z,1005.69
2019-02-28T09:27:12.265Z,1005.73
2019-02-28T09:28:13.147Z,1005.72
2019-02-28T09:29:11.433Z,1005.79
2019-02-28T09:30:11.415Z,1005.75
2019-02-28T09:31:11.412Z,1005.78
2019-02-28T09:32:13.618Z,1005.74
2019-02-28T09:33:11.420Z,1005.68
2019-02-28T09:34:11.367Z,1005.68
2019-02-28T09:35:14.436Z,1005.66
2019-02-28T09:36:11.346Z,1005.64
2019-02-28T09:37:11.357Z,1005.56
2019-02-28T09:38:13.586Z,1005.61
2019-02-28T09:39:12.257Z,1005.51
2019-02-28T09:40:11.340Z,1005.45
2019-02-28T09:41:11.304Z,1005.44
2019-02-28T09:42:14.757Z,1005.45
2019-02-28T09:43:11.275Z,1005.49
2019-02-28T09:44:11.265Z,1005.39
2019-02-28T09:45:11.300Z,1005.43
2019-02-28T09:46:12.424Z,1005.39
2019-02-28T09:47:11.826Z,1005.38
2019-02-28T09:48:11.241Z,1005.41
2019-02-28T09:49:12.860Z,1005.35
2019-02-28T09:50:11.270Z,1005.48
2019-02-28T09:51:11.189Z,1005.43
2019-02-28T09:52:11.176Z,1005.34
2019-02-28T09:53:15.563Z,1005.35
2019-02-28T09:54:11.153Z,1005.41
2019-02-28T09:55:11.139Z,1005.45
2019-02-28T09:56:11.184Z,1005.41
2019-02-28T09:57:11.113Z,1005.35
2019-02-28T09:58:11.103Z,1005.32
2019-02-28T09:59:11.096Z,1005.30
2019-02-28T10:00:11.840Z,1005.31
2019-02-28T10:01:11.331Z,1005.24
2019-02-28T10:02:11.066Z,1005.32
2019-02-28T10:03:11.052Z,1005.27
2019-02-28T10:04:11.074Z,1005.29
2019-02-28T10:05:11.790Z,1005.29
2019-02-28T10:06:16.422Z,1005.35
2019-02-28T10:07:11.017Z,1005.34
2019-02-28T10:08:11.051Z,1005.38
2019-02-28T10:09:11.048Z,1005.36
2019-02-28T10:10:10.997Z,1005.31
2019-02-28T10:11:11.001Z,1005.38
2019-02-28T10:12:11.103Z,1005.39
2019-02-28T10:13:10.941Z,1005.37
2019-02-28T10:14:12.216Z,1005.27
2019-02-28T10:15:10.920Z,1005.18
2019-02-28T10:16:13.610Z,1005.25
2019-02-28T10:17:11.907Z,1005.21
2019-02-28T10:18:10.902Z,1005.18
2019-02-28T10:19:13.459Z,1005.17
2019-02-28T10:20:10.878Z,1005.11
2019-02-28T10:21:10.883Z,1005.15
2019-02-28T10:22:12.884Z,1005.12
2019-02-28T10:23:10.904Z,1005.16
2019-02-28T10:24:10.937Z,1005.16
2019-02-28T10:25:10.954Z,1005.11
2019-02-28T10:26:10.815Z,1005.10
2019-02-28T10:27:26.742Z,1005.15
2019-02-28T10:28:10.779Z,1005.09
2019-02-28T10:29:10.781Z,1005.09
2019-02-28T10:30:15.514Z,1005.11
2019-02-28T10:31:11.752Z,1005.10
2019-02-28T10:32:10.748Z,1005.04
2019-02-28T10:33:17.347Z,1004.98
2019-02-28T10:34:10.755Z,1004.96
2019-02-28T10:35:10.700Z,1005.03
2019-02-28T10:36:13.020Z,1005.02
2019-02-28T10:37:10.686Z,1005.03
2019-02-28T10:38:10.710Z,1005.05
2019-02-28T10:39:10.655Z,1005.04
2019-02-28T10:40:10.681Z,1005.06
2019-02-28T10:41:10.643Z,1005.04
2019-02-28T10:42:10.640Z,1005.10
2019-02-28T10:43:12.186Z,1005.03
2019-02-28T10:44:11.468Z,1005.14
2019-02-28T10:45:10.633Z,1005.20
2019-02-28T10:46:13.317Z,1005.25
2019-02-28T10:47:11.572Z,1005.27
2019-02-28T10:48:10.581Z,1005.20
2019-02-28T10:49:39.948Z,1005.34
2019-02-28T10:50:10.545Z,1005.32
2019-02-28T10:51:13.914Z,1005.26
2019-02-28T10:52:10.542Z,1005.26
2019-02-28T10:53:10.524Z,1005.31
2019-02-28T10:54:14.551Z,1005.26
2019-02-28T10:55:10.497Z,1005.18
2019-02-28T10:56:10.505Z,1005.14
2019-02-28T10:57:10.473Z,1005.13
2019-02-28T10:58:12.429Z,1005.14
2019-02-28T10:59:11.452Z,1005.03
2019-02-28T11:00:10.456Z,1005.01
2019-02-28T11:01:10.736Z,1004.97
2019-02-28T11:02:13.480Z,1004.96
2019-02-28T11:03:11.404Z,1005.06
2019-02-28T11:04:10.990Z,1005.06
2019-02-28T11:05:10.373Z,1005.10
2019-02-28T11:06:10.375Z,1005.16
2019-02-28T11:07:26.386Z,1005.08
2019-02-28T11:08:12.848Z,1005.10
2019-02-28T11:09:10.349Z,1005.19
2019-02-28T11:10:10.325Z,1005.19
2019-02-28T11:11:10.526Z,1005.24
2019-02-28T11:12:10.308Z,1005.30
2019-02-28T11:13:10.425Z,1005.27
2019-02-28T11:14:10.304Z,1005.26
2019-02-28T11:15:13.733Z,1005.28
2019-02-28T11:16:10.296Z,1005.18
2019-02-28T11:17:13.719Z,1005.18
2019-02-28T11:18:10.311Z,1005.11
2019-02-28T11:19:18.643Z,1005.09
2019-02-28T11:20:10.212Z,1005.02
2019-02-28T11:21:10.205Z,1005.02
2019-02-28T11:22:10.190Z,1005.10
2019-02-28T11:23:14.365Z,1005.11
2019-02-28T11:24:10.202Z,1005.10
2019-02-28T11:25:10.161Z,1005.18
2019-02-28T11:26:10.457Z,1005.15
2019-02-28T11:27:10.419Z,1005.12
2019-02-28T11:28:10.127Z,1005.14
2019-02-28T11:29:10.145Z,1005.21
2019-02-28T11:30:10.818Z,1005.22
2019-02-28T11:31:11.213Z,1005.21
2019-02-28T11:32:10.079Z,1005.12
2019-02-28T11:33:10.072Z,1005.16
2019-02-28T11:34:11.601Z,1005.15
2019-02-28T11:35:10.104Z,1005.16
2019-02-28T11:36:10.151Z,1005.18
2019-02-28T11:37:10.022Z,1005.00
2019-02-28T11:38:10.259Z,1005.06
2019-02-28T11:39:20.315Z,1005.12
2019-02-28T11:40:09.997Z,1005.06
2019-02-28T11:41:09.985Z,1005.02
2019-02-28T11:42:09.972Z,1005.01
2019-02-28T11:43:09.956Z,1005.07
2019-02-28T11:44:12.018Z,1005.11
2019-02-28T11:45:09.979Z,1005.02
2019-02-28T11:46:09.924Z,1004.90
2019-02-28T11:47:11.203Z,1005.02
2019-02-28T11:48:09.933Z,1004.94
2019-02-28T11:49:09.934Z,1004.96
2019-02-28T11:50:09.932Z,1004.91
2019-02-28T11:51:09.954Z,1004.95
2019-02-28T11:52:09.870Z,1004.97
2019-02-28T11:53:09.889Z,1004.96
2019-02-28T11:54:12.307Z,1005.00
2019-02-28T11:55:09.885Z,1004.96
2019-02-28T11:56:09.813Z,1005.01
2019-02-28T11:57:09.806Z,1005.03
2019-02-28T11:58:09.819Z,1005.08
2019-02-28T11:59:09.865Z,1005.08
2019-02-28T12:00:09.795Z,1005.06
2019-02-28T12:01:10.663Z,1004.99
2019-02-28T12:02:09.791Z,1004.98
2019-02-28T12:03:09.759Z,1005.07
2019-02-28T12:04:09.736Z,1005.01
2019-02-28T12:05:12.287Z,1004.93